createdAt,value
2019-01-17T05:56:06.410Z,1.00
2019-01-17T05:58:20.781Z,5.00
2019-01-17T06:00:29.378Z,5.00
2019-01-17T06:02:36.762Z,5.00
2019-01-17T06:04:54.828Z,5.00
2019-01-17T06:07:02.186Z,4.00
2019-01-17T06:09:09.575Z,4.00
2019-01-17T06:11:23.537Z,4.00
2019-01-17T06:13:30.900Z,4.00
2019-01-17T06:15:39.519Z,4.00
2019-01-17T06:17:53.483Z,4.00
2019-01-17T06:20:02.891Z,4.00
2019-01-17T06:22:11.512Z,4.00
2019-01-17T06:24:26.702Z,4.00
2019-01-17T06:26:34.069Z,4.00
2019-01-17T06:28:42.689Z,4.00
2019-01-17T06:30:56.751Z,4.00
2019-01-17T06:33:04.420Z,4.00
2019-01-17T06:35:13.859Z,4.00
2019-01-17T06:37:27.820Z,4.00
2019-01-17T06:39:36.414Z,3.00
2019-01-17T06:41:45.029Z,4.00
2019-01-17T06:45:39.510Z,4.00
2019-01-17T06:50:03.553Z,5.00
2019-01-17T06:52:16.874Z,4.00
2019-01-17T06:54:24.212Z,5.00
2019-01-17T06:56:38.556Z,6.00
2019-01-17T06:58:45.886Z,5.00
2019-01-17T07:00:53.211Z,6.00
2019-01-17T07:03:07.560Z,7.00
2019-01-17T07:05:15.941Z,8.00
2019-01-17T07:07:23.216Z,9.00
2019-01-17T07:09:37.560Z,11.00
2019-01-17T07:11:44.893Z,12.00
2019-01-17T07:13:56.237Z,18.00
2019-01-17T07:16:10.571Z,22.00
2019-01-17T07:18:17.902Z,25.00
2019-01-17T07:20:25.225Z,28.00
2019-01-17T07:22:39.573Z,33.00
2019-01-17T07:24:46.890Z,29.00
2019-01-17T07:26:54.226Z,48.00
2019-01-17T07:29:09.556Z,60.00
2019-01-17T07:31:16.883Z,71.00
2019-01-17T07:33:24.217Z,66.00
2019-01-17T07:35:39.564Z,84.00
2019-01-17T07:37:46.897Z,119.00
2019-01-17T07:39:54.230Z,141.00
2019-01-17T07:42:08.577Z,161.00
2019-01-17T07:44:15.908Z,184.00
2019-01-17T07:46:23.241Z,208.00
2019-01-17T07:48:37.579Z,231.00
2019-01-17T07:50:45.901Z,244.00
2019-01-17T07:52:53.237Z,259.00
2019-01-17T07:55:09.573Z,269.00
2019-01-17T07:57:16.909Z,255.00
2019-01-17T07:59:24.243Z,226.00
2019-01-17T08:01:38.577Z,264.00
2019-01-17T08:03:45.905Z,313.00
2019-01-17T08:05:53.240Z,346.00
2019-01-17T08:08:08.577Z,353.00
2019-01-17T08:10:15.907Z,348.00
2019-01-17T08:12:23.240Z,355.00
2019-01-17T08:14:37.587Z,461.00
2019-01-17T08:16:44.922Z,456.00
2019-01-17T08:18:53.243Z,484.00
2019-01-17T08:21:07.581Z,643.00
2019-01-17T08:23:21.589Z,593.00
2019-01-17T08:25:28.924Z,901.00
2019-01-17T08:27:36.251Z,1033.00
2019-01-17T08:29:50.580Z,956.00
2019-01-17T08:31:57.913Z,1075.00
2019-01-17T08:34:11.605Z,1156.00
2019-01-17T08:36:18.943Z,1335.00
2019-01-17T08:38:26.276Z,1588.00
2019-01-17T08:40:40.610Z,1238.00
2019-01-17T08:42:47.947Z,797.00
2019-01-17T08:44:55.285Z,560.00
2019-01-17T08:47:09.607Z,315.00
2019-01-17T08:49:16.936Z,486.00
2019-01-17T08:51:24.273Z,685.00
2019-01-17T08:53:38.618Z,917.00
2019-01-17T08:55:45.952Z,1370.00
2019-01-17T08:57:53.285Z,1521.00
2019-01-17T09:00:07.601Z,2067.00
2019-01-17T09:02:14.937Z,1755.00
2019-01-17T09:04:28.606Z,1544.00
2019-01-17T09:06:35.943Z,1465.00
2019-01-17T09:08:43.270Z,657.00
2019-01-17T09:10:57.600Z,743.00
2019-01-17T09:13:04.968Z,607.00
2019-01-17T09:15:12.296Z,593.00
2019-01-17T09:17:27.610Z,377.00
2019-01-17T09:19:34.944Z,343.00
2019-01-17T09:21:42.272Z,398.00
2019-01-17T09:23:56.623Z,464.00
2019-01-17T09:26:07.470Z,499.00
2019-01-17T09:28:11.285Z,289.00
2019-01-17T09:30:25.619Z,205.00
2019-01-17T09:32:32.960Z,239.00
2019-01-17T09:34:40.294Z,231.00
2019-01-17T09:36:54.627Z,225.00
2019-01-17T09:39:02.953Z,221.00
2019-01-17T09:41:10.291Z,122.00
2019-01-17T09:43:24.624Z,275.00
2019-01-17T09:45:31.961Z,324.00
2019-01-17T09:47:39.287Z,539.00
2019-01-17T09:49:53.638Z,690.00
2019-01-17T09:52:00.972Z,525.00
2019-01-17T09:54:08.307Z,565.00
2019-01-17T09:56:22.630Z,427.00
2019-01-17T09:58:29.969Z,573.00
2019-01-17T10:00:37.293Z,595.00
2019-01-17T10:02:51.804Z,831.00
2019-01-17T10:04:59.138Z,1190.00
2019-01-17T10:07:06.472Z,1193.00
2019-01-17T10:09:20.633Z,1051.00
2019-01-17T10:11:34.660Z,1039.00
2019-01-17T10:13:41.992Z,1085.00
2019-01-17T10:15:49.327Z,978.00
2019-01-17T10:18:03.660Z,608.00
2019-01-17T10:20:10.994Z,663.00
2019-01-17T10:22:18.326Z,579.00
2019-01-17T10:24:32.712Z,689.00
2019-01-17T10:26:40.014Z,631.00
2019-01-17T10:28:47.348Z,719.00
2019-01-17T10:31:01.676Z,603.00
2019-01-17T10:33:09.014Z,670.00
2019-01-17T10:35:16.344Z,452.00
2019-01-17T10:37:30.688Z,386.00
2019-01-17T10:39:38.026Z,471.00
2019-01-17T10:41:45.356Z,359.00
2019-01-17T10:43:59.676Z,332.00
2019-01-17T10:46:07.009Z,240.00
2019-01-17T10:48:14.344Z,209.00
2019-01-17T10:50:28.669Z,289.00
2019-01-17T10:52:36.003Z,346.00
2019-01-17T10:54:49.674Z,248.00
2019-01-17T10:56:57.045Z,178.00
2019-01-17T10:59:04.371Z,202.00
2019-01-17T11:01:18.702Z,200.00
2019-01-17T11:03:26.033Z,278.00
2019-01-17T11:05:33.365Z,285.00
2019-01-17T11:07:47.681Z,488.00
2019-01-17T11:09:55.015Z,427.00
2019-01-17T11:12:02.345Z,739.00
2019-01-17T11:14:16.719Z,807.00
2019-01-17T11:16:24.012Z,751.00
2019-01-17T11:18:31.332Z,698.00
2019-01-17T11:20:45.676Z,856.00
2019-01-17T11:22:53.009Z,1032.00
2019-01-17T11:25:00.343Z,1264.00
2019-01-17T11:27:14.686Z,1152.00
2019-01-17T11:29:22.017Z,1050.00
2019-01-17T11:31:29.352Z,957.00
2019-01-17T11:33:43.684Z,927.00
2019-01-17T11:35:51.016Z,827.00
2019-01-17T11:37:58.352Z,719.00
2019-01-17T11:40:12.695Z,846.00
2019-01-17T11:42:20.030Z,844.00
2019-01-17T11:44:27.360Z,1007.00
2019-01-17T11:46:41.699Z,1130.00
2019-01-17T11:48:49.031Z,795.00
2019-01-17T11:50:56.366Z,740.00
2019-01-17T11:53:10.707Z,621.00
2019-01-17T11:55:18.051Z,1255.00
2019-01-17T11:57:25.378Z,868.00
2019-01-17T11:59:39.700Z,809.00
2019-01-17T12:01:47.047Z,1774.00
2019-01-17T12:03:54.383Z,1301.00
2019-01-17T12:06:08.710Z,630.00
2019-01-17T12:08:16.044Z,308.00
2019-01-17T12:10:23.379Z,425.00
2019-01-17T12:12:37.718Z,641.00
2019-01-17T12:14:45.052Z,897.00
2019-01-17T12:16:52.381Z,638.00
2019-01-17T12:19:06.716Z,601.00
2019-01-17T12:21:14.058Z,416.00
2019-01-17T12:23:21.399Z,300.00
2019-01-17T12:25:35.731Z,248.00
2019-01-17T12:27:43.061Z,247.00
2019-01-17T12:29:53.528Z,270.00
2019-01-17T12:32:08.724Z,255.00
2019-01-17T12:34:16.057Z,358.00
2019-01-17T12:36:23.386Z,407.00
2019-01-17T12:38:37.737Z,585.00
2019-01-17T12:40:45.069Z,373.00
2019-01-17T12:42:52.400Z,378.00
2019-01-17T12:45:06.730Z,521.00
2019-01-17T12:47:14.059Z,235.00
2019-01-17T12:49:21.408Z,322.00
2019-01-17T12:51:35.725Z,474.00
2019-01-17T12:53:49.772Z,723.00
2019-01-17T12:55:57.145Z,695.00
2019-01-17T12:58:04.433Z,684.00
2019-01-17T13:00:18.766Z,811.00
2019-01-17T13:02:26.096Z,452.00
2019-01-17T13:04:33.430Z,561.00
2019-01-17T13:06:47.757Z,814.00
2019-01-17T13:08:55.100Z,990.00
2019-01-17T13:11:02.424Z,693.00
2019-01-17T13:13:16.755Z,487.00
2019-01-17T13:15:30.754Z,452.00
2019-01-17T13:17:38.087Z,625.00
2019-01-17T13:19:45.425Z,653.00
2019-01-17T13:21:59.758Z,445.00
2019-01-17T13:24:07.093Z,301.00
2019-01-17T13:26:14.427Z,266.00
2019-01-17T13:28:28.756Z,410.00
2019-01-17T13:30:42.760Z,508.00
2019-01-17T13:32:50.098Z,815.00
2019-01-17T13:34:57.432Z,1021.00
2019-01-17T13:37:11.766Z,1522.00
2019-01-17T13:39:19.138Z,2188.00
2019-01-17T13:41:26.472Z,1614.00
2019-01-17T13:43:40.798Z,1177.00
2019-01-17T13:45:54.793Z,662.00
2019-01-17T13:48:02.128Z,482.00
2019-01-17T13:50:09.458Z,492.00
2019-01-17T13:52:23.793Z,588.00
2019-01-17T13:54:31.129Z,589.00
2019-01-17T13:56:38.457Z,411.00
2019-01-17T13:58:52.780Z,161.00
2019-01-17T14:01:06.773Z,345.00
2019-01-17T14:03:14.111Z,348.00
2019-01-17T14:05:27.803Z,260.00
2019-01-17T14:07:35.137Z,270.00
2019-01-17T14:09:42.473Z,253.00
2019-01-17T14:11:56.851Z,179.00
2019-01-17T14:14:04.137Z,216.00
2019-01-17T14:16:11.472Z,512.00
2019-01-17T14:18:27.930Z,511.00
2019-01-17T14:20:33.141Z,366.00
2019-01-17T14:22:40.475Z,362.00
2019-01-17T14:24:54.811Z,291.00
2019-01-17T14:27:02.151Z,367.00
2019-01-17T14:29:09.526Z,360.00
2019-01-17T14:31:23.815Z,438.00
2019-01-17T14:33:31.150Z,481.00
2019-01-17T14:35:38.483Z,397.00
2019-01-17T14:37:52.826Z,324.00
2019-01-17T14:40:00.249Z,314.00
2019-01-17T14:42:07.491Z,432.00
2019-01-17T14:44:21.829Z,434.00
2019-01-17T14:46:29.164Z,415.00
2019-01-17T14:48:36.504Z,416.00
2019-01-17T14:50:50.830Z,402.00
2019-01-17T14:52:58.169Z,475.00
2019-01-17T14:55:05.506Z,452.00
2019-01-17T14:57:20.741Z,520.00
2019-01-17T14:59:27.164Z,521.00
2019-01-17T15:01:34.500Z,507.00
2019-01-17T15:03:48.840Z,506.00
2019-01-17T15:05:56.174Z,695.00
2019-01-17T15:08:03.510Z,761.00
2019-01-17T15:10:17.844Z,664.00
2019-01-17T15:12:25.180Z,522.00
2019-01-17T15:14:32.509Z,528.00
2019-01-17T15:16:46.847Z,460.00
2019-01-17T15:18:54.178Z,421.00
2019-01-17T15:21:01.518Z,440.00
2019-01-17T15:23:15.841Z,414.00
2019-01-17T15:25:23.169Z,278.00
2019-01-17T15:27:30.502Z,138.00
2019-01-17T15:29:44.842Z,57.00
2019-01-17T15:31:52.173Z,72.00
2019-01-17T15:33:59.509Z,82.00
2019-01-17T15:36:13.854Z,63.00
2019-01-17T15:38:21.190Z,78.00
2019-01-17T15:40:28.528Z,100.00
2019-01-17T15:42:42.871Z,100.00
2019-01-17T15:44:50.196Z,81.00
2019-01-17T15:46:57.556Z,71.00
2019-01-17T15:49:11.865Z,45.00
2019-01-17T15:51:20.198Z,41.00
2019-01-17T15:53:27.531Z,37.00
2019-01-17T15:55:41.862Z,19.00
2019-01-17T15:57:49.197Z,11.00
2019-01-17T15:59:56.530Z,8.00
2019-01-17T16:02:10.863Z,9.00
2019-01-17T16:04:18.200Z,9.00
2019-01-17T16:06:25.529Z,10.00
2019-01-17T16:08:41.131Z,17.00
2019-01-17T16:10:48.496Z,14.00
2019-01-17T16:12:55.883Z,12.00
2019-01-17T16:15:10.255Z,10.00
2019-01-17T16:17:17.626Z,9.00
2019-01-17T16:19:27.055Z,9.00
2019-01-17T16:21:41.020Z,6.00
2019-01-17T16:23:48.379Z,4.00
2019-01-17T16:25:55.771Z,3.00
2019-01-17T16:28:10.973Z,9.00
2019-01-17T16:30:24.905Z,9.00
2019-01-17T16:32:33.498Z,8.00
2019-01-17T16:34:40.886Z,7.00
2019-01-17T16:36:54.892Z,6.00
2019-01-17T16:39:02.619Z,7.00
2019-01-17T16:41:11.240Z,6.00
2019-01-17T16:43:25.200Z,6.00
2019-01-17T16:45:35.551Z,6.00
2019-01-17T16:47:42.125Z,6.00
2019-01-17T16:51:36.604Z,7.00
2019-01-17T16:53:44.931Z,7.00
2019-01-17T16:55:58.641Z,7.00
2019-01-17T16:58:06.244Z,7.00
2019-01-17T17:00:13.628Z,7.00
2019-01-17T17:02:28.009Z,7.00
2019-01-17T17:04:36.594Z,6.00
2019-01-17T17:06:43.930Z,6.00
2019-01-17T17:08:59.176Z,7.00
2019-01-17T17:11:07.785Z,7.00
2019-01-17T17:13:15.163Z,7.00
2019-01-17T17:15:28.656Z,6.00
2019-01-17T17:17:36.073Z,6.00
2019-01-17T17:19:43.407Z,6.00
2019-01-17T17:21:57.659Z,6.00
2019-01-17T17:24:05.203Z,5.00
2019-01-17T17:26:12.591Z,6.00
2019-01-17T17:28:26.958Z,6.00
2019-01-17T17:30:35.563Z,6.00
2019-01-17T17:32:42.935Z,6.00
2019-01-17T17:34:56.898Z,5.00
2019-01-17T17:37:04.272Z,6.00
2019-01-17T17:39:11.657Z,6.00
2019-01-17T17:41:26.027Z,6.00
2019-01-17T17:43:33.397Z,6.00
2019-01-17T17:45:40.780Z,6.00
2019-01-17T17:47:54.737Z,6.00
2019-01-17T17:50:02.111Z,6.00
2019-01-17T17:52:10.728Z,6.00
2019-01-17T17:54:25.109Z,6.00
2019-01-17T17:56:32.460Z,6.00
2019-01-17T17:58:39.849Z,6.00
2019-01-17T18:00:53.811Z,6.00
2019-01-17T18:03:01.592Z,6.00
2019-01-17T18:05:11.025Z,6.00
2019-01-17T18:07:24.677Z,6.00
2019-01-17T18:09:33.004Z,6.00
2019-01-17T18:11:40.552Z,6.00
2019-01-17T18:13:56.981Z,6.00
2019-01-17T18:16:05.571Z,6.00
2019-01-17T18:18:12.958Z,7.00
2019-01-17T18:20:27.744Z,7.00
2019-01-17T18:22:35.105Z,7.00
2019-01-17T18:24:42.442Z,7.00
2019-01-17T18:26:56.867Z,7.00
2019-01-17T18:29:05.462Z,7.00
2019-01-17T18:31:12.844Z,7.00
2019-01-17T18:33:28.069Z,7.00
2019-01-17T18:35:36.639Z,6.00
2019-01-17T18:37:44.018Z,6.00
2019-01-17T18:39:58.799Z,7.00
2019-01-17T18:42:06.140Z,7.00
2019-01-17T18:44:13.553Z,7.00
2019-01-17T18:46:27.928Z,6.00
2019-01-17T18:48:35.297Z,6.00
2019-01-17T18:50:42.685Z,7.00
2019-01-17T18:52:58.720Z,7.00
2019-01-17T18:55:06.464Z,7.00
2019-01-17T18:57:13.857Z,7.00
2019-01-17T18:59:27.817Z,7.00
2019-01-17T19:01:35.167Z,7.00
2019-01-17T19:03:42.568Z,7.00
2019-01-17T19:05:56.940Z,7.00
2019-01-17T19:08:05.536Z,7.00
2019-01-17T19:10:14.149Z,6.00
2019-01-17T19:12:27.740Z,7.00
2019-01-17T19:14:36.310Z,2.00
2019-01-17T19:16:44.918Z,2.00
2019-01-17T19:18:58.879Z,2.00
2019-01-17T19:21:06.243Z,2.00
2019-01-17T19:23:14.886Z,2.00
2019-01-17T19:25:28.823Z,2.00
2019-01-17T19:27:37.415Z,2.00
2019-01-17T19:29:45.743Z,2.00
2019-01-17T19:32:02.048Z,2.00
2019-01-17T19:34:09.414Z,2.00
2019-01-17T19:36:23.781Z,2.00
2019-01-17T19:38:31.156Z,2.00
2019-01-17T19:40:38.535Z,2.00
2019-01-17T19:42:54.139Z,2.00
2019-01-17T19:45:02.736Z,2.00
2019-01-17T19:47:10.123Z,2.00
2019-01-17T19:49:24.081Z,2.00
2019-01-17T19:51:38.028Z,2.00
2019-01-17T19:53:45.387Z,2.00
2019-01-17T19:55:52.787Z,2.00
2019-01-17T19:58:07.147Z,2.00
2019-01-17T20:00:14.520Z,2.00
2019-01-17T20:02:21.901Z,2.00
2019-01-17T20:04:41.545Z,2.00
2019-01-17T20:06:43.227Z,2.00
2019-01-17T20:08:50.618Z,2.00
2019-01-17T20:11:04.982Z,2.00
2019-01-17T20:13:12.353Z,2.00
2019-01-17T20:15:19.737Z,2.00
2019-01-17T20:17:34.107Z,2.00
2019-01-17T20:19:42.708Z,2.00
2019-01-17T20:21:52.141Z,2.00
2019-01-17T20:24:06.106Z,2.00
2019-01-17T20:26:14.700Z,2.00
2019-01-17T20:28:23.320Z,2.00
2019-01-17T20:30:36.863Z,2.00
2019-01-17T20:32:45.459Z,2.00
2019-01-17T20:34:52.848Z,2.00
2019-01-17T20:37:08.036Z,2.00
2019-01-17T20:39:15.403Z,2.00
2019-01-17T20:41:22.791Z,2.00
2019-01-17T20:43:37.169Z,2.00
2019-01-17T20:45:44.529Z,2.00
2019-01-17T20:47:53.961Z,2.00
2019-01-17T20:50:07.922Z,2.00
2019-01-17T20:52:15.291Z,2.00
2019-01-17T20:54:23.910Z,2.00
2019-01-17T20:56:37.872Z,2.00
2019-01-17T20:58:45.236Z,2.00
2019-01-17T21:00:54.675Z,2.00
2019-01-17T21:03:09.941Z,2.00
2019-01-17T21:05:17.637Z,2.00
2019-01-17T21:07:25.025Z,2.00
2019-01-17T21:09:41.039Z,2.00
2019-01-17T21:11:49.628Z,2.00
2019-01-17T21:13:58.289Z,2.00
2019-01-17T21:16:15.893Z,2.00
2019-01-17T21:18:29.449Z,2.00
2019-01-17T21:20:36.797Z,2.00
2019-01-17T21:22:51.164Z,2.00
2019-01-17T21:24:58.536Z,2.00
